createdAt,value
2023-01-03T00:03:49.691Z,1.23
2023-01-03T00:06:21.651Z,1.00
2023-01-03T00:08:48.653Z,0.80
2023-01-03T00:11:17.758Z,0.95
2023-01-03T00:13:45.036Z,1.10
2023-01-03T00:16:18.886Z,0.90
2023-01-03T00:18:46.361Z,1.10
2023-01-03T00:21:13.311Z,0.80
2023-01-03T00:23:39.781Z,0.80
2023-01-03T00:26:15.498Z,0.85
2023-01-03T00:28:43.038Z,0.90
2023-01-03T00:31:11.759Z,0.88
2023-01-03T00:33:39.835Z,0.85
2023-01-03T00:38:34.330Z,0.90
2023-01-03T00:41:12.015Z,1.33
2023-01-03T00:43:39.453Z,1.80
2023-01-03T00:46:06.894Z,1.40
2023-01-03T00:48:33.953Z,1.55
2023-01-03T00:51:08.392Z,2.28
2023-01-03T00:53:36.438Z,2.13
2023-01-03T00:58:34.013Z,1.30
2023-01-03T01:01:14.781Z,1.30
2023-01-03T01:03:44.033Z,1.23
2023-01-03T01:06:25.800Z,1.15
2023-01-03T01:08:56.316Z,1.23
2023-01-03T01:11:23.585Z,1.00
2023-01-03T01:13:53.503Z,0.80
2023-01-03T01:16:23.618Z,1.00
2023-01-03T01:18:53.642Z,1.13
2023-01-03T01:21:26.527Z,0.95
2023-01-03T01:23:53.344Z,1.00
2023-01-03T01:26:22.643Z,0.70
2023-01-03T01:28:50.189Z,0.93
2023-01-03T01:31:20.110Z,0.90
2023-01-03T01:33:46.629Z,1.02
2023-01-03T01:36:19.376Z,1.00
2023-01-03T01:38:47.855Z,0.88
2023-01-03T01:41:37.016Z,0.80
2023-01-03T01:44:22.856Z,1.10
2023-01-03T01:46:50.300Z,0.80
2023-01-03T01:49:23.267Z,1.10
2023-01-03T01:51:50.181Z,1.00
2023-01-03T01:54:16.902Z,0.68
2023-01-03T01:56:47.859Z,0.75
2023-01-03T01:59:15.105Z,1.00
2023-01-03T02:01:44.888Z,1.00
2023-01-03T02:04:23.038Z,1.00
2023-01-03T02:06:51.083Z,1.30
2023-01-03T02:12:18.769Z,1.30
2023-01-03T02:15:08.852Z,0.90
2023-01-03T02:17:51.509Z,1.10
2023-01-03T02:20:24.035Z,0.93
2023-01-03T02:23:24.566Z,0.80
2023-01-03T02:25:56.766Z,0.95
2023-01-03T02:28:48.070Z,0.90
2023-01-03T02:31:36.458Z,1.00
2023-01-03T02:34:18.375Z,1.02
2023-01-03T02:36:56.388Z,1.40
2023-01-03T02:39:33.892Z,1.33
2023-01-03T02:42:35.047Z,1.48
2023-01-03T02:45:11.526Z,1.30
2023-01-03T02:47:46.770Z,1.30
2023-01-03T02:50:14.141Z,1.60
2023-01-03T02:52:43.908Z,1.33
2023-01-03T02:55:17.007Z,1.20
2023-01-03T02:57:52.271Z,1.40
2023-01-03T03:00:22.626Z,1.40
2023-01-03T03:02:54.230Z,1.20
2023-01-03T03:05:32.234Z,1.35
2023-01-03T03:07:58.657Z,1.25
2023-01-03T03:10:45.529Z,1.20
2023-01-03T03:13:37.034Z,1.30
2023-01-03T03:16:18.273Z,1.40
2023-01-03T03:18:59.080Z,2.05
2023-01-03T03:21:50.759Z,1.80
2023-01-03T03:24:43.734Z,1.30
2023-01-03T03:27:32.902Z,2.38
2023-01-03T03:30:02.657Z,2.10
2023-01-03T03:32:32.400Z,1.90
2023-01-03T03:35:02.254Z,1.75
2023-01-03T03:37:31.331Z,1.90
2023-01-03T03:40:16.761Z,1.88
2023-01-03T03:43:16.146Z,1.60
2023-01-03T03:46:03.979Z,1.38
2023-01-03T03:48:58.123Z,1.70
2023-01-03T03:51:31.231Z,1.50
2023-01-03T03:54:01.817Z,1.33
2023-01-03T03:56:33.674Z,1.33
2023-01-03T03:59:06.560Z,1.30
2023-01-03T04:01:35.681Z,1.20
2023-01-03T04:04:11.470Z,1.10
2023-01-03T04:06:44.136Z,1.13
2023-01-03T04:09:10.780Z,1.33
2023-01-03T04:11:37.172Z,1.20
2023-01-03T04:14:03.679Z,1.20
2023-01-03T04:16:30.275Z,1.27
2023-01-03T04:18:56.945Z,1.17
2023-01-03T04:21:23.364Z,1.30
2023-01-03T04:23:49.994Z,1.30
2023-01-03T04:26:16.712Z,1.23
2023-01-03T04:28:43.240Z,0.90
2023-01-03T04:31:09.907Z,1.27
2023-01-03T04:33:36.591Z,1.20
2023-01-03T04:36:03.292Z,1.20
2023-01-03T04:38:29.715Z,1.13
2023-01-03T04:40:56.177Z,1.00
2023-01-03T04:43:41.316Z,1.75
2023-01-03T04:46:07.934Z,1.40
2023-01-03T04:48:34.489Z,1.58
2023-01-03T04:51:00.993Z,1.80
2023-01-03T04:53:27.759Z,1.85
2023-01-03T04:55:56.893Z,1.83
2023-01-03T04:58:23.729Z,1.67
2023-01-03T05:00:50.750Z,1.75
2023-01-03T05:03:20.197Z,1.85
2023-01-03T05:05:50.519Z,1.85
2023-01-03T05:08:17.042Z,1.83
2023-01-03T05:10:43.479Z,1.77
2023-01-03T05:13:10.071Z,1.63
2023-01-03T05:15:38.681Z,2.00
2023-01-03T05:18:05.769Z,2.08
2023-01-03T05:20:50.860Z,1.95
2023-01-03T05:23:53.336Z,1.92
2023-01-03T05:26:21.681Z,2.10
2023-01-03T05:28:52.388Z,2.00
2023-01-03T05:31:19.931Z,2.30
2023-01-03T05:33:46.696Z,2.20
2023-01-03T05:36:13.163Z,2.40
2023-01-03T05:38:39.637Z,2.30
2023-01-03T05:41:06.747Z,2.20
2023-01-03T05:43:33.302Z,1.90
2023-01-03T05:46:00.095Z,2.00
2023-01-03T05:48:27.088Z,2.30
2023-01-03T05:50:57.455Z,2.15
2023-01-03T05:53:24.562Z,3.22
2023-01-03T05:55:51.430Z,2.90
2023-01-03T05:58:17.944Z,3.22
2023-01-03T06:00:44.357Z,2.88
2023-01-03T06:03:10.905Z,2.25
2023-01-03T06:05:37.312Z,2.90
2023-01-03T06:08:03.750Z,3.85
2023-01-03T06:10:30.274Z,2.78
2023-01-03T06:12:56.989Z,2.92
2023-01-03T06:15:23.522Z,2.78
2023-01-03T06:17:58.077Z,2.78
2023-01-03T06:20:26.602Z,3.58
2023-01-03T06:22:54.238Z,3.45
2023-01-03T06:25:21.332Z,3.47
2023-01-03T06:27:47.816Z,2.45
2023-01-03T06:30:15.738Z,2.53
2023-01-03T06:32:43.090Z,2.65
2023-01-03T06:35:09.822Z,3.00
2023-01-03T06:37:36.269Z,3.47
2023-01-03T06:40:02.864Z,3.47
2023-01-03T06:42:44.425Z,3.17
2023-01-03T06:45:31.014Z,2.88
2023-01-03T06:48:16.428Z,3.50
2023-01-03T06:51:02.659Z,3.75
2023-01-03T06:53:40.477Z,3.65
2023-01-03T06:56:07.906Z,3.75
2023-01-03T06:58:35.033Z,3.80
2023-01-03T07:01:03.974Z,4.18
2023-01-03T07:03:32.098Z,4.18
2023-01-03T07:05:58.551Z,4.20
2023-01-03T07:08:25.022Z,4.43
2023-01-03T07:10:51.441Z,4.78
2023-01-03T07:13:36.260Z,4.47
2023-01-03T07:16:02.745Z,4.18
2023-01-03T07:18:29.239Z,4.35
2023-01-03T07:20:55.721Z,3.90
2023-01-03T07:23:22.180Z,4.40
2023-01-03T07:25:48.654Z,7.05
2023-01-03T07:28:16.198Z,14.48
2023-01-03T07:30:44.968Z,10.73
2023-01-03T07:33:13.485Z,5.90
2023-01-03T07:35:39.907Z,6.55
2023-01-03T07:38:07.370Z,5.65
2023-01-03T07:40:33.971Z,5.65
2023-01-03T07:43:19.316Z,6.47
2023-01-03T07:45:46.603Z,7.03
2023-01-03T07:48:13.913Z,6.95
2023-01-03T07:50:41.296Z,5.15
2023-01-03T07:53:08.968Z,5.28
2023-01-03T07:55:37.168Z,5.00
2023-01-03T08:00:30.423Z,5.05
2023-01-03T08:02:57.003Z,4.75
2023-01-03T08:05:24.316Z,5.90
2023-01-03T08:07:51.971Z,4.20
2023-01-03T08:10:38.097Z,4.05
2023-01-03T08:13:17.482Z,3.40
2023-01-03T08:15:57.115Z,3.65
2023-01-03T08:18:26.472Z,3.75
2023-01-03T08:20:55.407Z,3.50
2023-01-03T08:23:22.915Z,3.60
2023-01-03T08:25:49.393Z,3.47
2023-01-03T08:28:15.998Z,3.42
2023-01-03T08:30:51.601Z,3.95
2023-01-03T08:33:19.771Z,4.40
2023-01-03T08:35:50.841Z,3.33
2023-01-03T08:38:23.062Z,3.50
2023-01-03T08:40:49.665Z,3.30
2023-01-03T08:43:17.720Z,3.08
2023-01-03T08:48:11.082Z,3.00
2023-01-03T08:50:37.741Z,3.05
2023-01-03T08:53:05.802Z,2.90
2023-01-03T08:58:00.129Z,3.40
2023-01-03T09:00:28.232Z,2.63
2023-01-03T09:05:24.202Z,3.10
2023-01-03T09:07:50.646Z,2.80
2023-01-03T09:10:17.104Z,3.45
2023-01-03T09:12:43.621Z,2.70
2023-01-03T09:15:10.487Z,2.70
2023-01-03T09:17:36.969Z,2.58
2023-01-03T09:20:03.964Z,2.53
2023-01-03T09:22:30.603Z,2.75
2023-01-03T09:24:57.054Z,2.22
2023-01-03T09:27:23.589Z,3.45
2023-01-03T09:29:50.046Z,2.83
2023-01-03T09:32:16.541Z,2.40
2023-01-03T09:34:43.233Z,2.33
2023-01-03T09:37:09.904Z,2.63
2023-01-03T09:39:36.793Z,2.85
2023-01-03T09:42:23.769Z,2.97
2023-01-03T09:44:50.162Z,2.30
2023-01-03T09:47:21.679Z,2.85
2023-01-03T09:50:18.735Z,3.10
2023-01-03T09:52:53.946Z,5.57
2023-01-03T09:55:55.890Z,3.72
2023-01-03T09:58:40.793Z,2.92
2023-01-03T10:01:44.869Z,2.40
2023-01-03T10:04:33.229Z,2.67
2023-01-03T10:07:21.335Z,2.90
2023-01-03T10:09:57.962Z,2.58
2023-01-03T10:12:56.662Z,2.35
2023-01-03T10:15:58.455Z,2.47
2023-01-03T10:18:51.530Z,2.72
2023-01-03T10:21:44.891Z,2.97
2023-01-03T10:24:24.532Z,2.47
2023-01-03T10:27:19.033Z,2.45
2023-01-03T10:29:46.651Z,2.88
2023-01-03T10:32:22.333Z,2.30
2023-01-03T10:35:16.420Z,3.00
2023-01-03T10:37:43.813Z,3.40
2023-01-03T10:40:11.244Z,2.78
2023-01-03T10:42:39.741Z,2.97
2023-01-03T10:45:15.086Z,2.70
2023-01-03T10:47:42.191Z,2.95
2023-01-03T10:50:20.738Z,2.80
2023-01-03T10:52:49.484Z,2.90
2023-01-03T10:55:18.469Z,3.00
2023-01-03T10:57:56.660Z,3.20
2023-01-03T11:00:37.510Z,2.90
2023-01-03T11:03:22.574Z,2.58
2023-01-03T11:06:01.241Z,2.83
2023-01-03T11:08:39.681Z,2.55
2023-01-03T11:11:35.481Z,2.42
2023-01-03T11:14:23.413Z,2.50
2023-01-03T11:17:05.070Z,2.78
2023-01-03T11:19:33.747Z,2.35
2023-01-03T11:22:12.666Z,1.30
2023-01-03T11:25:11.728Z,1.10
2023-01-03T11:27:58.828Z,1.20
2023-01-03T11:30:46.478Z,1.70
2023-01-03T11:33:29.720Z,1.73
2023-01-03T11:36:06.815Z,1.83
2023-01-03T11:38:55.085Z,2.00
2023-01-03T11:41:42.711Z,1.73
2023-01-03T11:44:45.732Z,2.55
2023-01-03T11:47:31.284Z,2.00
2023-01-03T11:50:34.800Z,1.73
2023-01-03T11:53:18.535Z,1.85
2023-01-03T11:56:11.846Z,2.33
2023-01-03T11:58:44.215Z,1.55
2023-01-03T12:01:49.265Z,1.90
2023-01-03T12:04:27.271Z,1.70
2023-01-03T12:07:45.741Z,1.60
2023-01-03T12:10:18.770Z,1.92
2023-01-03T12:12:57.380Z,1.50
2023-01-03T12:15:44.297Z,1.25
2023-01-03T12:22:10.736Z,1.70
2023-01-03T12:24:49.627Z,1.45
2023-01-03T12:27:36.642Z,1.35
2023-01-03T12:30:29.012Z,1.60
2023-01-03T12:33:02.176Z,1.73
2023-01-03T12:35:46.631Z,1.23
2023-01-03T12:38:13.160Z,1.67
2023-01-03T12:40:55.378Z,1.50
2023-01-03T12:43:47.231Z,1.60
2023-01-03T12:46:18.524Z,1.70
2023-01-03T12:49:01.762Z,1.35
2023-01-03T12:51:28.282Z,1.40
2023-01-03T12:54:26.945Z,1.60
2023-01-03T12:57:50.796Z,1.75
2023-01-03T13:00:41.512Z,1.77
2023-01-03T13:03:20.086Z,1.50
2023-01-03T13:05:54.404Z,1.50
2023-01-03T13:08:40.153Z,1.38
2023-01-03T13:11:43.741Z,1.50
2023-01-03T13:14:22.679Z,1.08
2023-01-03T13:16:51.029Z,1.10
2023-01-03T13:19:20.185Z,0.90
2023-01-03T13:21:52.622Z,0.95
2023-01-03T13:24:45.048Z,0.68
2023-01-03T13:27:17.682Z,0.85
2023-01-03T13:30:17.502Z,1.20
2023-01-03T13:33:04.861Z,1.10
2023-01-03T13:35:57.095Z,1.20
2023-01-03T13:38:28.260Z,1.20
2023-01-03T13:41:19.908Z,1.20
2023-01-03T13:43:51.562Z,1.10
2023-01-03T13:46:24.812Z,1.02
2023-01-03T13:48:56.579Z,1.05
2023-01-03T13:51:22.925Z,4.32
2023-01-03T13:54:11.237Z,1.27
2023-01-03T13:56:43.773Z,1.20
2023-01-03T13:59:19.248Z,1.10
2023-01-03T14:02:01.202Z,1.00
2023-01-03T14:04:30.726Z,0.93
2023-01-03T14:07:10.604Z,1.17
2023-01-03T14:09:54.502Z,0.90
2023-01-03T14:12:20.966Z,1.20
2023-01-03T14:14:54.409Z,0.90
2023-01-03T14:17:27.196Z,1.33
2023-01-03T14:19:56.801Z,0.63
2023-01-03T14:22:31.671Z,0.60
2023-01-03T14:24:59.624Z,0.88
2023-01-03T14:27:32.329Z,0.82
2023-01-03T14:29:58.795Z,0.90
2023-01-03T14:32:34.026Z,0.90
2023-01-03T14:35:01.059Z,0.90
2023-01-03T14:37:27.617Z,0.90
2023-01-03T14:40:02.130Z,0.70
2023-01-03T14:42:29.115Z,1.60
2023-01-03T14:45:01.285Z,0.90
2023-01-03T14:47:33.200Z,1.35
2023-01-03T14:50:00.029Z,0.82
2023-01-03T14:52:34.072Z,0.90
2023-01-03T14:55:12.994Z,0.80
2023-01-03T14:57:40.395Z,1.00
2023-01-03T15:00:11.862Z,0.90
2023-01-03T15:02:41.110Z,0.90
2023-01-03T15:05:32.171Z,1.00
2023-01-03T15:08:22.040Z,0.80
2023-01-03T15:10:59.726Z,1.25
2023-01-03T15:13:48.675Z,1.10
2023-01-03T15:16:24.719Z,1.05
2023-01-03T15:18:51.823Z,0.90
2023-01-03T15:21:21.657Z,1.00
2023-01-03T15:23:49.906Z,1.08
2023-01-03T15:26:47.377Z,1.27
2023-01-03T15:29:24.020Z,1.40
2023-01-03T15:31:53.566Z,1.30
2023-01-03T15:34:24.315Z,1.60
2023-01-03T15:36:57.210Z,1.48
2023-01-03T15:39:27.014Z,1.30
2023-01-03T15:42:43.373Z,1.17
2023-01-03T15:45:22.787Z,1.10
2023-01-03T15:47:50.733Z,1.13
2023-01-03T15:50:19.584Z,0.98
2023-01-03T15:52:48.225Z,1.00
2023-01-03T15:55:16.578Z,1.40
2023-01-03T15:57:49.477Z,1.35
2023-01-03T16:00:22.609Z,1.38
2023-01-03T16:02:49.605Z,1.40
2023-01-03T16:05:22.189Z,1.30
2023-01-03T16:07:49.853Z,1.45
2023-01-03T16:10:16.258Z,1.50
2023-01-03T16:12:43.499Z,1.30
2023-01-03T16:15:22.264Z,1.38
2023-01-03T16:17:50.592Z,1.70
2023-01-03T16:20:18.880Z,1.30
2023-01-03T16:23:02.300Z,1.52
2023-01-03T16:25:29.181Z,2.20
2023-01-03T16:27:55.763Z,1.95
2023-01-03T16:30:24.439Z,2.33
2023-01-03T16:32:51.548Z,1.55
2023-01-03T16:35:20.679Z,1.60
2023-01-03T16:37:47.334Z,1.77
2023-01-03T16:40:19.373Z,1.80
2023-01-03T16:42:45.893Z,2.00
2023-01-03T16:45:12.737Z,1.50
2023-01-03T16:47:39.909Z,1.50
2023-01-03T16:50:19.234Z,1.77
2023-01-03T16:52:52.274Z,2.03
2023-01-03T16:55:39.702Z,2.00
2023-01-03T16:58:06.818Z,2.08
2023-01-03T17:00:34.793Z,3.42
2023-01-03T17:03:01.927Z,2.83
2023-01-03T17:05:32.922Z,4.50
2023-01-03T17:08:23.764Z,3.83
2023-01-03T17:10:52.940Z,4.88
2023-01-03T17:13:26.342Z,8.40
2023-01-03T17:15:54.020Z,5.55
2023-01-03T17:18:23.473Z,5.63
2023-01-03T17:20:56.493Z,5.20
2023-01-03T17:23:23.791Z,6.10
2023-01-03T17:25:50.797Z,4.38
2023-01-03T17:28:17.473Z,5.30
2023-01-03T17:30:44.661Z,4.63
2023-01-03T17:33:15.571Z,4.85
2023-01-03T17:35:44.851Z,4.97
2023-01-03T17:38:31.596Z,4.57
2023-01-03T17:40:58.085Z,4.10
2023-01-03T17:43:25.332Z,3.50
2023-01-03T17:46:22.874Z,3.33
2023-01-03T17:49:08.446Z,4.70
2023-01-03T17:51:35.078Z,4.22
2023-01-03T17:54:01.660Z,5.93
2023-01-03T17:56:29.671Z,7.13
2023-01-03T17:58:56.907Z,6.03
2023-01-03T18:01:23.561Z,5.05
2023-01-03T18:03:50.336Z,4.22
2023-01-03T18:06:22.507Z,4.38
2023-01-03T18:08:50.283Z,4.60
2023-01-03T18:11:20.311Z,3.90
2023-01-03T18:13:48.448Z,4.13
2023-01-03T18:16:20.905Z,4.10
2023-01-03T18:18:48.308Z,4.22
2023-01-03T18:21:22.314Z,3.50
2023-01-03T18:23:55.239Z,4.28
2023-01-03T18:26:22.598Z,5.00
2023-01-03T18:28:49.095Z,5.68
2023-01-03T18:31:18.831Z,4.85
2023-01-03T18:33:45.620Z,5.10
2023-01-03T18:36:28.090Z,5.55
2023-01-03T18:39:00.888Z,6.90
2023-01-03T18:41:29.889Z,6.32
2023-01-03T18:43:56.479Z,5.80
2023-01-03T18:46:23.163Z,7.22
2023-01-03T18:48:49.597Z,8.27
2023-01-03T18:51:18.306Z,10.10
2023-01-03T18:53:48.205Z,9.00
2023-01-03T18:56:27.967Z,7.50
2023-01-03T18:59:01.665Z,6.78
2023-01-03T19:01:29.146Z,6.93
2023-01-03T19:03:56.006Z,9.48
2023-01-03T19:06:30.272Z,7.00
2023-01-03T19:08:59.841Z,6.63
2023-01-03T19:11:37.812Z,6.82
2023-01-03T19:14:04.452Z,8.23
2023-01-03T19:16:34.584Z,6.35
2023-01-03T19:19:01.822Z,7.85
2023-01-03T19:21:51.112Z,8.15
2023-01-03T19:24:38.836Z,9.05
2023-01-03T19:27:33.707Z,7.75
2023-01-03T19:30:00.218Z,9.70
2023-01-03T19:32:29.427Z,7.90
2023-01-03T19:34:55.997Z,7.65
2023-01-03T19:37:23.461Z,7.05
2023-01-03T19:39:49.841Z,5.80
2023-01-03T19:42:38.425Z,7.57
2023-01-03T19:45:27.418Z,7.88
2023-01-03T19:47:55.264Z,6.88
2023-01-03T19:50:27.513Z,6.05
2023-01-03T19:52:54.571Z,6.53
2023-01-03T19:55:27.511Z,6.20
2023-01-03T19:57:54.420Z,7.43
2023-01-03T20:00:27.313Z,6.57
2023-01-03T20:02:57.340Z,7.70
2023-01-03T20:05:26.727Z,8.00
2023-01-03T20:07:53.588Z,8.18
2023-01-03T20:10:26.028Z,10.93
2023-01-03T20:12:54.852Z,11.15
2023-01-03T20:15:26.742Z,9.45
2023-01-03T20:17:53.562Z,9.75
2023-01-03T20:20:20.893Z,8.50
2023-01-03T20:23:05.783Z,9.55
2023-01-03T20:25:34.756Z,10.05
2023-01-03T20:28:02.065Z,8.68
2023-01-03T20:30:31.328Z,7.43
2023-01-03T20:32:58.214Z,7.45
2023-01-03T20:36:08.409Z,6.80
2023-01-03T20:38:16.654Z,5.85
2023-01-03T20:40:43.147Z,5.43
2023-01-03T20:43:13.508Z,5.10
2023-01-03T20:45:40.705Z,6.55
2023-01-03T20:48:15.845Z,6.57
2023-01-03T20:50:46.043Z,6.68
2023-01-03T20:53:19.884Z,8.38
2023-01-03T20:55:46.943Z,7.22
2023-01-03T20:58:17.229Z,8.63
2023-01-03T21:00:44.243Z,7.97
2023-01-03T21:03:11.328Z,7.68
2023-01-03T21:05:38.565Z,8.13
2023-01-03T21:08:25.083Z,7.07
2023-01-03T21:10:54.733Z,6.35
2023-01-03T21:13:22.002Z,7.30
2023-01-03T21:15:49.461Z,6.43
2023-01-03T21:18:16.692Z,7.43
2023-01-03T21:20:43.954Z,8.02
2023-01-03T21:23:18.185Z,8.25
2023-01-03T21:25:45.012Z,7.53
2023-01-03T21:28:12.108Z,7.03
2023-01-03T21:30:39.700Z,6.07
2023-01-03T21:33:06.309Z,6.88
2023-01-03T21:35:32.812Z,5.97
2023-01-03T21:37:59.271Z,7.28
2023-01-03T21:40:28.879Z,7.32
2023-01-03T21:43:04.169Z,9.05
2023-01-03T21:45:36.545Z,7.32
2023-01-03T21:48:06.231Z,7.10
2023-01-03T21:50:34.073Z,6.95
2023-01-03T21:53:00.526Z,6.38
2023-01-03T21:55:27.309Z,8.93
2023-01-03T21:57:53.767Z,10.95
2023-01-03T22:00:20.415Z,9.55
2023-01-03T22:03:06.376Z,7.82
2023-01-03T22:05:33.386Z,11.18
2023-01-03T22:08:03.439Z,11.57
2023-01-03T22:10:30.680Z,10.52
2023-01-03T22:13:00.122Z,8.32
2023-01-03T22:15:26.631Z,7.55
2023-01-03T22:17:53.923Z,7.13
2023-01-03T22:20:23.813Z,6.60
2023-01-03T22:22:50.533Z,5.97
2023-01-03T22:25:19.771Z,7.63
2023-01-03T22:27:46.543Z,7.03
2023-01-03T22:30:20.141Z,6.80
2023-01-03T22:32:47.049Z,9.82
2023-01-03T22:35:15.394Z,8.57
2023-01-03T22:40:12.283Z,9.10
2023-01-03T22:42:38.839Z,8.82
2023-01-03T22:45:06.694Z,12.10
2023-01-03T22:47:35.642Z,12.40
2023-01-03T22:50:06.379Z,14.50
2023-01-03T22:52:33.046Z,13.63
2023-01-03T22:54:59.489Z,13.25
2023-01-03T22:57:26.188Z,15.07
2023-01-03T22:59:52.633Z,15.35
2023-01-03T23:02:23.146Z,14.68
2023-01-03T23:04:52.796Z,14.93
2023-01-03T23:07:19.159Z,16.15
2023-01-03T23:09:45.632Z,16.48
2023-01-03T23:12:30.573Z,13.90
2023-01-03T23:14:56.967Z,13.90
2023-01-03T23:17:41.852Z,18.05
2023-01-03T23:20:08.876Z,12.30
2023-01-03T23:22:35.621Z,13.85
2023-01-03T23:25:02.080Z,16.85
2023-01-03T23:27:28.786Z,18.00
2023-01-03T23:29:55.360Z,15.85
2023-01-03T23:32:21.724Z,13.02
2023-01-03T23:34:48.253Z,11.60
2023-01-03T23:37:14.772Z,14.18
2023-01-03T23:39:41.172Z,11.15
2023-01-03T23:42:07.592Z,9.73
2023-01-03T23:44:34.075Z,8.25
2023-01-03T23:47:01.576Z,10.30
2023-01-03T23:49:30.184Z,10.63
2023-01-03T23:51:56.618Z,10.85
2023-01-03T23:54:23.002Z,9.45
2023-01-03T23:56:49.465Z,9.40
2023-01-03T23:59:15.891Z,9.10
